sensor_id;sensor_type;location;lat;lon;timestamp;P1;durP1;ratioP1;P2;durP2;ratioP2
1262;SDS011;62267;50.112;8.704;2023-03-05T00:00:29;11.33;;;9.30;;
1262;SDS011;62267;50.112;8.704;2023-03-05T00:02:56;14.73;;;10.70;;
1262;SDS011;62267;50.112;8.704;2023-03-05T00:05:24;17.07;;;10.40;;
1262;SDS011;62267;50.112;8.704;2023-03-05T00:07:52;17.03;;;10.70;;
1262;SDS011;62267;50.112;8.704;2023-03-05T00:10:19;11.80;;;8.90;;
1262;SDS011;62267;50.112;8.704;2023-03-05T00:12:46;11.50;;;9.03;;
1262;SDS011;62267;50.112;8.704;2023-03-05T00:15:13;13.33;;;9.10;;
1262;SDS011;62267;50.112;8.704;2023-03-05T00:17:41;15.77;;;10.63;;
1262;SDS011;62267;50.112;8.704;2023-03-05T00:20:08;14.00;;;9.67;;
1262;SDS011;62267;50.112;8.704;2023-03-05T00:22:36;14.80;;;8.37;;
1262;SDS011;62267;50.112;8.704;2023-03-05T00:25:03;13.37;;;8.77;;
1262;SDS011;62267;50.112;8.704;2023-03-05T00:27:31;10.03;;;8.50;;
1262;SDS011;62267;50.112;8.704;2023-03-05T00:29:58;10.17;;;7.50;;
1262;SDS011;62267;50.112;8.704;2023-03-05T00:32:26;12.43;;;7.87;;
1262;SDS011;62267;50.112;8.704;2023-03-05T00:34:53;12.90;;;7.57;;
1262;SDS011;62267;50.112;8.704;2023-03-05T00:37:21;8.07;;;7.10;;
1262;SDS011;62267;50.112;8.704;2023-03-05T00:39:48;11.00;;;6.97;;
1262;SDS011;62267;50.112;8.704;2023-03-05T00:42:16;10.80;;;7.83;;
1262;SDS011;62267;50.112;8.704;2023-03-05T00:44:43;10.33;;;7.33;;
1262;SDS011;62267;50.112;8.704;2023-03-05T00:47:10;11.00;;;7.10;;
1262;SDS011;62267;50.112;8.704;2023-03-05T00:49:38;9.50;;;7.23;;
1262;SDS011;62267;50.112;8.704;2023-03-05T00:52:06;12.13;;;6.30;;
1262;SDS011;62267;50.112;8.704;2023-03-05T00:54:33;12.67;;;7.13;;
1262;SDS011;62267;50.112;8.704;2023-03-05T00:57:01;7.90;;;7.03;;
1262;SDS011;62267;50.112;8.704;2023-03-05T00:59:31;11.13;;;6.83;;
1262;SDS011;62267;50.112;8.704;2023-03-05T01:01:59;8.27;;;7.00;;
1262;SDS011;62267;50.112;8.704;2023-03-05T01:04:28;7.67;;;5.93;;
1262;SDS011;62267;50.112;8.704;2023-03-05T01:06:57;8.00;;;6.40;;
1262;SDS011;62267;50.112;8.704;2023-03-05T01:09:25;8.73;;;6.07;;
1262;SDS011;62267;50.112;8.704;2023-03-05T01:11:52;9.07;;;6.43;;
1262;SDS011;62267;50.112;8.704;2023-03-05T01:14:20;7.17;;;6.30;;
1262;SDS011;62267;50.112;8.704;2023-03-05T01:16:48;11.23;;;7.10;;
1262;SDS011;62267;50.112;8.704;2023-03-05T01:19:15;13.50;;;7.03;;
1262;SDS011;62267;50.112;8.704;2023-03-05T01:21:43;10.27;;;6.40;;
1262;SDS011;62267;50.112;8.704;2023-03-05T01:24:12;12.13;;;7.10;;
1262;SDS011;62267;50.112;8.704;2023-03-05T01:26:39;9.33;;;6.10;;
1262;SDS011;62267;50.112;8.704;2023-03-05T01:29:06;7.37;;;6.40;;
1262;SDS011;62267;50.112;8.704;2023-03-05T01:31:36;7.13;;;6.40;;
1262;SDS011;62267;50.112;8.704;2023-03-05T01:34:03;14.50;;;6.70;;
1262;SDS011;62267;50.112;8.704;2023-03-05T01:36:30;9.53;;;6.30;;
1262;SDS011;62267;50.112;8.704;2023-03-05T01:38:58;10.57;;;6.40;;
1262;SDS011;62267;50.112;8.704;2023-03-05T01:41:25;10.37;;;6.43;;
1262;SDS011;62267;50.112;8.704;2023-03-05T01:43:53;10.70;;;7.03;;
1262;SDS011;62267;50.112;8.704;2023-03-05T01:46:21;7.50;;;5.67;;
1262;SDS011;62267;50.112;8.704;2023-03-05T01:49:00;9.83;;;6.43;;
1262;SDS011;62267;50.112;8.704;2023-03-05T01:51:31;8.73;;;6.00;;
1262;SDS011;62267;50.112;8.704;2023-03-05T01:53:59;6.60;;;5.90;;
1262;SDS011;62267;50.112;8.704;2023-03-05T01:56:27;12.43;;;5.40;;
1262;SDS011;62267;50.112;8.704;2023-03-05T01:58:55;7.50;;;5.93;;
1262;SDS011;62267;50.112;8.704;2023-03-05T02:01:30;10.00;;;4.93;;
1262;SDS011;62267;50.112;8.704;2023-03-05T02:03:58;7.17;;;5.90;;
1262;SDS011;62267;50.112;8.704;2023-03-05T02:06:26;8.60;;;5.57;;
1262;SDS011;62267;50.112;8.704;2023-03-05T02:08:54;9.50;;;5.77;;
1262;SDS011;62267;50.112;8.704;2023-03-05T02:11:22;13.20;;;7.13;;
1262;SDS011;62267;50.112;8.704;2023-03-05T02:13:50;6.83;;;5.30;;
1262;SDS011;62267;50.112;8.704;2023-03-05T02:16:17;13.80;;;5.63;;
1262;SDS011;62267;50.112;8.704;2023-03-05T02:18:46;5.30;;;4.70;;
1262;SDS011;62267;50.112;8.704;2023-03-05T02:21:13;11.70;;;5.57;;
1262;SDS011;62267;50.112;8.704;2023-03-05T02:23:53;7.53;;;5.07;;
1262;SDS011;62267;50.112;8.704;2023-03-05T02:26:22;9.30;;;5.07;;
1262;SDS011;62267;50.112;8.704;2023-03-05T02:28:51;6.57;;;5.90;;
1262;SDS011;62267;50.112;8.704;2023-03-05T02:31:22;9.20;;;4.80;;
1262;SDS011;62267;50.112;8.704;2023-03-05T02:33:50;6.70;;;5.40;;
1262;SDS011;62267;50.112;8.704;2023-03-05T02:36:19;9.03;;;5.50;;
1262;SDS011;62267;50.112;8.704;2023-03-05T02:38:47;8.73;;;5.60;;
1262;SDS011;62267;50.112;8.704;2023-03-05T02:41:16;6.50;;;5.80;;
1262;SDS011;62267;50.112;8.704;2023-03-05T02:43:43;7.83;;;5.03;;
1262;SDS011;62267;50.112;8.704;2023-03-05T02:46:11;9.30;;;5.47;;
1262;SDS011;62267;50.112;8.704;2023-03-05T02:48:38;7.57;;;5.70;;
1262;SDS011;62267;50.112;8.704;2023-03-05T02:51:09;9.30;;;5.10;;
1262;SDS011;62267;50.112;8.704;2023-03-05T02:53:36;9.23;;;5.77;;
1262;SDS011;62267;50.112;8.704;2023-03-05T02:56:04;8.83;;;5.70;;
1262;SDS011;62267;50.112;8.704;2023-03-05T02:58:33;8.23;;;6.07;;
1262;SDS011;62267;50.112;8.704;2023-03-05T03:01:01;10.00;;;6.50;;
1262;SDS011;62267;50.112;8.704;2023-03-05T03:03:28;14.13;;;6.70;;
1262;SDS011;62267;50.112;8.704;2023-03-05T03:05:56;9.90;;;6.57;;
1262;SDS011;62267;50.112;8.704;2023-03-05T03:08:23;9.13;;;6.30;;
1262;SDS011;62267;50.112;8.704;2023-03-05T03:10:50;11.07;;;7.17;;
1262;SDS011;62267;50.112;8.704;2023-03-05T03:13:18;8.30;;;6.63;;
1262;SDS011;62267;50.112;8.704;2023-03-05T03:15:46;11.00;;;6.40;;
1262;SDS011;62267;50.112;8.704;2023-03-05T03:18:15;12.73;;;6.60;;
1262;SDS011;62267;50.112;8.704;2023-03-05T03:20:43;9.07;;;6.73;;
1262;SDS011;62267;50.112;8.704;2023-03-05T03:23:10;10.97;;;7.20;;
1262;SDS011;62267;50.112;8.704;2023-03-05T03:25:37;10.60;;;7.37;;
1262;SDS011;62267;50.112;8.704;2023-03-05T03:28:04;12.60;;;7.23;;
1262;SDS011;62267;50.112;8.704;2023-03-05T03:30:32;13.57;;;6.80;;
1262;SDS011;62267;50.112;8.704;2023-03-05T03:32:59;8.83;;;6.23;;
1262;SDS011;62267;50.112;8.704;2023-03-05T03:35:27;10.73;;;6.50;;
1262;SDS011;62267;50.112;8.704;2023-03-05T03:37:54;13.93;;;6.57;;
1262;SDS011;62267;50.112;8.704;2023-03-05T03:40:21;15.23;;;7.37;;
1262;SDS011;62267;50.112;8.704;2023-03-05T03:42:52;10.43;;;7.40;;
1262;SDS011;62267;50.112;8.704;2023-03-05T03:45:21;10.30;;;6.80;;
1262;SDS011;62267;50.112;8.704;2023-03-05T03:47:48;11.07;;;6.97;;
1262;SDS011;62267;50.112;8.704;2023-03-05T03:50:17;10.37;;;7.60;;
1262;SDS011;62267;50.112;8.704;2023-03-05T03:52:44;11.27;;;6.80;;
1262;SDS011;62267;50.112;8.704;2023-03-05T03:55:12;9.73;;;7.20;;
1262;SDS011;62267;50.112;8.704;2023-03-05T03:57:39;12.07;;;7.30;;
1262;SDS011;62267;50.112;8.704;2023-03-05T04:00:09;9.00;;;6.77;;
1262;SDS011;62267;50.112;8.704;2023-03-05T04:02:40;7.90;;;5.93;;
1262;SDS011;62267;50.112;8.704;2023-03-05T04:05:08;8.57;;;5.60;;
1262;SDS011;62267;50.112;8.704;2023-03-05T04:07:37;6.57;;;4.93;;
1262;SDS011;62267;50.112;8.704;2023-03-05T04:10:05;5.60;;;5.00;;
1262;SDS011;62267;50.112;8.704;2023-03-05T04:12:32;8.17;;;4.70;;
1262;SDS011;62267;50.112;8.704;2023-03-05T04:15:00;14.10;;;4.43;;
1262;SDS011;62267;50.112;8.704;2023-03-05T04:17:27;5.63;;;4.50;;
1262;SDS011;62267;50.112;8.704;2023-03-05T04:19:55;7.10;;;5.50;;
1262;SDS011;62267;50.112;8.704;2023-03-05T04:22:22;6.00;;;4.57;;
1262;SDS011;62267;50.112;8.704;2023-03-05T04:24:49;6.27;;;4.60;;
1262;SDS011;62267;50.112;8.704;2023-03-05T04:27:17;5.20;;;3.70;;
1262;SDS011;62267;50.112;8.704;2023-03-05T04:29:45;7.63;;;3.60;;
1262;SDS011;62267;50.112;8.704;2023-03-05T04:32:13;5.20;;;3.90;;
1262;SDS011;62267;50.112;8.704;2023-03-05T04:34:40;5.67;;;3.80;;
1262;SDS011;62267;50.112;8.704;2023-03-05T04:37:07;4.97;;;3.57;;
1262;SDS011;62267;50.112;8.704;2023-03-05T04:39:35;5.00;;;4.30;;
1262;SDS011;62267;50.112;8.704;2023-03-05T04:42:02;4.00;;;3.33;;
1262;SDS011;62267;50.112;8.704;2023-03-05T04:44:30;5.23;;;3.33;;
1262;SDS011;62267;50.112;8.704;2023-03-05T04:46:57;6.07;;;3.30;;
1262;SDS011;62267;50.112;8.704;2023-03-05T04:49:24;6.90;;;3.60;;
1262;SDS011;62267;50.112;8.704;2023-03-05T04:51:52;4.07;;;3.33;;
1262;SDS011;62267;50.112;8.704;2023-03-05T04:54:20;4.73;;;2.73;;
1262;SDS011;62267;50.112;8.704;2023-03-05T04:56:47;5.00;;;3.67;;
1262;SDS011;62267;50.112;8.704;2023-03-05T04:59:15;3.33;;;3.03;;
1262;SDS011;62267;50.112;8.704;2023-03-05T05:01:43;4.60;;;3.40;;
1262;SDS011;62267;50.112;8.704;2023-03-05T05:04:10;3.70;;;3.40;;
1262;SDS011;62267;50.112;8.704;2023-03-05T05:06:38;5.80;;;3.10;;
1262;SDS011;62267;50.112;8.704;2023-03-05T05:09:05;3.33;;;3.00;;
1262;SDS011;62267;50.112;8.704;2023-03-05T05:11:32;3.00;;;2.80;;
1262;SDS011;62267;50.112;8.704;2023-03-05T05:14:00;4.93;;;3.20;;
1262;SDS011;62267;50.112;8.704;2023-03-05T05:16:28;3.50;;;3.20;;
1262;SDS011;62267;50.112;8.704;2023-03-05T05:18:56;3.23;;;2.80;;
1262;SDS011;62267;50.112;8.704;2023-03-05T05:21:23;3.77;;;2.67;;
1262;SDS011;62267;50.112;8.704;2023-03-05T05:23:52;7.17;;;4.00;;
1262;SDS011;62267;50.112;8.704;2023-03-05T05:26:19;3.70;;;2.73;;
1262;SDS011;62267;50.112;8.704;2023-03-05T05:28:46;3.50;;;3.00;;
1262;SDS011;62267;50.112;8.704;2023-03-05T05:31:14;4.43;;;2.70;;
1262;SDS011;62267;50.112;8.704;2023-03-05T05:33:42;3.70;;;2.90;;
1262;SDS011;62267;50.112;8.704;2023-03-05T05:36:11;4.00;;;2.37;;
1262;SDS011;62267;50.112;8.704;2023-03-05T05:38:39;4.40;;;2.97;;
1262;SDS011;62267;50.112;8.704;2023-03-05T05:41:07;8.07;;;3.10;;
1262;SDS011;62267;50.112;8.704;2023-03-05T05:43:35;8.57;;;2.67;;
1262;SDS011;62267;50.112;8.704;2023-03-05T05:46:02;3.50;;;2.13;;
1262;SDS011;62267;50.112;8.704;2023-03-05T05:48:31;4.03;;;3.33;;
1262;SDS011;62267;50.112;8.704;2023-03-05T05:50:59;4.60;;;2.90;;
1262;SDS011;62267;50.112;8.704;2023-03-05T05:53:30;5.30;;;2.60;;
1262;SDS011;62267;50.112;8.704;2023-03-05T05:55:57;5.70;;;3.47;;
1262;SDS011;62267;50.112;8.704;2023-03-05T05:58:24;2.80;;;2.30;;
1262;SDS011;62267;50.112;8.704;2023-03-05T06:00:52;4.73;;;3.10;;
1262;SDS011;62267;50.112;8.704;2023-03-05T06:03:19;2.67;;;2.57;;
1262;SDS011;62267;50.112;8.704;2023-03-05T06:05:46;3.73;;;2.83;;
1262;SDS011;62267;50.112;8.704;2023-03-05T06:08:14;4.33;;;3.07;;
1262;SDS011;62267;50.112;8.704;2023-03-05T06:10:41;3.07;;;2.77;;
1262;SDS011;62267;50.112;8.704;2023-03-05T06:13:08;3.37;;;2.83;;
1262;SDS011;62267;50.112;8.704;2023-03-05T06:15:35;4.60;;;3.23;;
1262;SDS011;62267;50.112;8.704;2023-03-05T06:18:03;3.93;;;3.13;;
1262;SDS011;62267;50.112;8.704;2023-03-05T06:20:30;3.27;;;2.87;;
1262;SDS011;62267;50.112;8.704;2023-03-05T06:22:57;3.20;;;3.00;;
1262;SDS011;62267;50.112;8.704;2023-03-05T06:25:24;4.57;;;3.63;;
1262;SDS011;62267;50.112;8.704;2023-03-05T06:27:51;5.60;;;3.37;;
1262;SDS011;62267;50.112;8.704;2023-03-05T06:30:18;5.87;;;3.50;;
1262;SDS011;62267;50.112;8.704;2023-03-05T06:32:46;5.23;;;3.30;;
1262;SDS011;62267;50.112;8.704;2023-03-05T06:35:13;4.30;;;3.40;;
1262;SDS011;62267;50.112;8.704;2023-03-05T06:37:40;4.33;;;3.90;;
1262;SDS011;62267;50.112;8.704;2023-03-05T06:40:08;4.40;;;3.60;;
1262;SDS011;62267;50.112;8.704;2023-03-05T06:42:37;5.10;;;3.73;;
1262;SDS011;62267;50.112;8.704;2023-03-05T06:45:05;4.70;;;3.57;;
1262;SDS011;62267;50.112;8.704;2023-03-05T06:47:32;6.27;;;3.80;;
1262;SDS011;62267;50.112;8.704;2023-03-05T06:50:00;6.03;;;3.40;;
1262;SDS011;62267;50.112;8.704;2023-03-05T06:52:27;7.77;;;3.73;;
1262;SDS011;62267;50.112;8.704;2023-03-05T06:54:55;4.73;;;4.23;;
1262;SDS011;62267;50.112;8.704;2023-03-05T06:57:22;7.40;;;3.90;;
1262;SDS011;62267;50.112;8.704;2023-03-05T06:59:49;4.93;;;3.43;;
1262;SDS011;62267;50.112;8.704;2023-03-05T07:02:18;4.57;;;3.67;;
1262;SDS011;62267;50.112;8.704;2023-03-05T07:04:45;5.47;;;3.33;;
1262;SDS011;62267;50.112;8.704;2023-03-05T07:07:12;4.07;;;3.43;;
1262;SDS011;62267;50.112;8.704;2023-03-05T07:09:39;5.23;;;3.67;;
1262;SDS011;62267;50.112;8.704;2023-03-05T07:12:09;4.57;;;3.20;;
1262;SDS011;62267;50.112;8.704;2023-03-05T07:14:37;4.97;;;4.00;;
1262;SDS011;62267;50.112;8.704;2023-03-05T07:17:05;9.30;;;4.70;;
1262;SDS011;62267;50.112;8.704;2023-03-05T07:19:32;7.60;;;4.23;;
1262;SDS011;62267;50.112;8.704;2023-03-05T07:22:00;5.40;;;3.80;;
1262;SDS011;62267;50.112;8.704;2023-03-05T07:24:27;5.57;;;4.13;;
1262;SDS011;62267;50.112;8.704;2023-03-05T07:26:56;5.10;;;3.87;;
1262;SDS011;62267;50.112;8.704;2023-03-05T07:29:23;5.60;;;4.30;;
1262;SDS011;62267;50.112;8.704;2023-03-05T07:31:50;7.50;;;4.97;;
1262;SDS011;62267;50.112;8.704;2023-03-05T07:34:18;6.60;;;4.23;;
1262;SDS011;62267;50.112;8.704;2023-03-05T07:36:48;8.70;;;4.70;;
1262;SDS011;62267;50.112;8.704;2023-03-05T07:39:16;8.27;;;5.50;;
1262;SDS011;62267;50.112;8.704;2023-03-05T07:41:46;11.73;;;4.97;;
1262;SDS011;62267;50.112;8.704;2023-03-05T07:44:16;9.07;;;7.43;;
1262;SDS011;62267;50.112;8.704;2023-03-05T07:46:43;9.77;;;5.80;;
1262;SDS011;62267;50.112;8.704;2023-03-05T07:49:10;12.50;;;6.70;;
1262;SDS011;62267;50.112;8.704;2023-03-05T07:51:38;8.73;;;5.90;;
1262;SDS011;62267;50.112;8.704;2023-03-05T07:54:06;8.93;;;5.33;;
1262;SDS011;62267;50.112;8.704;2023-03-05T07:56:34;10.23;;;6.40;;
1262;SDS011;62267;50.112;8.704;2023-03-05T07:59:03;9.27;;;5.73;;
1262;SDS011;62267;50.112;8.704;2023-03-05T08:01:30;8.27;;;6.30;;
1262;SDS011;62267;50.112;8.704;2023-03-05T08:03:57;6.93;;;5.67;;
1262;SDS011;62267;50.112;8.704;2023-03-05T08:06:26;8.70;;;6.13;;
1262;SDS011;62267;50.112;8.704;2023-03-05T08:08:53;9.07;;;5.70;;
1262;SDS011;62267;50.112;8.704;2023-03-05T08:11:20;7.67;;;5.80;;
1262;SDS011;62267;50.112;8.704;2023-03-05T08:13:47;8.70;;;5.93;;
1262;SDS011;62267;50.112;8.704;2023-03-05T08:16:16;9.27;;;5.23;;
1262;SDS011;62267;50.112;8.704;2023-03-05T08:18:44;11.17;;;6.70;;
1262;SDS011;62267;50.112;8.704;2023-03-05T08:21:15;13.20;;;7.27;;
1262;SDS011;62267;50.112;8.704;2023-03-05T08:23:43;10.30;;;6.63;;
1262;SDS011;62267;50.112;8.704;2023-03-05T08:26:11;9.77;;;6.47;;
1262;SDS011;62267;50.112;8.704;2023-03-05T08:28:39;13.57;;;6.17;;
1262;SDS011;62267;50.112;8.704;2023-03-05T08:31:09;10.00;;;7.10;;
1262;SDS011;62267;50.112;8.704;2023-03-05T08:33:37;9.70;;;6.87;;
1262;SDS011;62267;50.112;8.704;2023-03-05T08:36:04;9.40;;;6.07;;
1262;SDS011;62267;50.112;8.704;2023-03-05T08:38:32;17.77;;;7.10;;
1262;SDS011;62267;50.112;8.704;2023-03-05T08:40:59;11.43;;;7.80;;
1262;SDS011;62267;50.112;8.704;2023-03-05T08:43:26;11.73;;;6.97;;
1262;SDS011;62267;50.112;8.704;2023-03-05T08:45:53;10.70;;;8.10;;
1262;SDS011;62267;50.112;8.704;2023-03-05T08:48:20;10.07;;;6.57;;
1262;SDS011;62267;50.112;8.704;2023-03-05T08:50:47;16.73;;;7.10;;
1262;SDS011;62267;50.112;8.704;2023-03-05T08:53:15;10.50;;;7.27;;
1262;SDS011;62267;50.112;8.704;2023-03-05T08:55:42;12.97;;;7.13;;
1262;SDS011;62267;50.112;8.704;2023-03-05T08:58:09;10.33;;;6.93;;
1262;SDS011;62267;50.112;8.704;2023-03-05T09:00:36;9.80;;;7.00;;
1262;SDS011;62267;50.112;8.704;2023-03-05T09:03:05;12.30;;;7.00;;
1262;SDS011;62267;50.112;8.704;2023-03-05T09:05:32;12.80;;;7.20;;
1262;SDS011;62267;50.112;8.704;2023-03-05T09:07:59;11.07;;;6.90;;
1262;SDS011;62267;50.112;8.704;2023-03-05T09:10:26;13.33;;;7.70;;
1262;SDS011;62267;50.112;8.704;2023-03-05T09:12:53;10.80;;;6.70;;
1262;SDS011;62267;50.112;8.704;2023-03-05T09:15:21;12.10;;;5.97;;
1262;SDS011;62267;50.112;8.704;2023-03-05T09:17:48;11.80;;;6.90;;
1262;SDS011;62267;50.112;8.704;2023-03-05T09:20:15;14.13;;;6.90;;
1262;SDS011;62267;50.112;8.704;2023-03-05T09:22:42;11.33;;;6.60;;
1262;SDS011;62267;50.112;8.704;2023-03-05T09:25:10;8.30;;;6.80;;
1262;SDS011;62267;50.112;8.704;2023-03-05T09:27:37;9.47;;;6.33;;
1262;SDS011;62267;50.112;8.704;2023-03-05T09:30:04;9.43;;;6.43;;
1262;SDS011;62267;50.112;8.704;2023-03-05T09:32:32;10.97;;;6.57;;
1262;SDS011;62267;50.112;8.704;2023-03-05T09:34:59;8.03;;;6.70;;
1262;SDS011;62267;50.112;8.704;2023-03-05T09:37:26;12.43;;;7.43;;
1262;SDS011;62267;50.112;8.704;2023-03-05T09:39:55;11.10;;;7.23;;
1262;SDS011;62267;50.112;8.704;2023-03-05T09:45:36;8.40;;;5.50;;
1262;SDS011;62267;50.112;8.704;2023-03-05T09:48:11;10.67;;;6.70;;
1262;SDS011;62267;50.112;8.704;2023-03-05T09:50:38;13.07;;;7.07;;
1262;SDS011;62267;50.112;8.704;2023-03-05T09:55:43;12.20;;;7.50;;
1262;SDS011;62267;50.112;8.704;2023-03-05T09:58:15;12.30;;;7.03;;
1262;SDS011;62267;50.112;8.704;2023-03-05T10:00:44;10.33;;;6.57;;
1262;SDS011;62267;50.112;8.704;2023-03-05T10:03:21;10.00;;;6.53;;
1262;SDS011;62267;50.112;8.704;2023-03-05T10:05:59;15.10;;;8.40;;
1262;SDS011;62267;50.112;8.704;2023-03-05T10:08:32;10.30;;;7.80;;
1262;SDS011;62267;50.112;8.704;2023-03-05T10:11:05;12.00;;;7.13;;
1262;SDS011;62267;50.112;8.704;2023-03-05T10:13:36;13.93;;;7.50;;
1262;SDS011;62267;50.112;8.704;2023-03-05T10:16:15;13.70;;;7.63;;
1262;SDS011;62267;50.112;8.704;2023-03-05T10:19:01;17.57;;;9.00;;
1262;SDS011;62267;50.112;8.704;2023-03-05T10:21:46;13.90;;;7.00;;
1262;SDS011;62267;50.112;8.704;2023-03-05T10:24:18;12.73;;;6.90;;
1262;SDS011;62267;50.112;8.704;2023-03-05T10:26:55;10.73;;;6.67;;
1262;SDS011;62267;50.112;8.704;2023-03-05T10:29:34;11.10;;;7.17;;
1262;SDS011;62267;50.112;8.704;2023-03-05T10:45:23;9.47;;;6.40;;
1262;SDS011;62267;50.112;8.704;2023-03-05T10:48:11;10.80;;;6.20;;
1262;SDS011;62267;50.112;8.704;2023-03-05T10:50:44;10.83;;;5.80;;
1262;SDS011;62267;50.112;8.704;2023-03-05T10:53:26;12.00;;;7.37;;
1262;SDS011;62267;50.112;8.704;2023-03-05T10:55:54;10.63;;;6.50;;
1262;SDS011;62267;50.112;8.704;2023-03-05T10:58:22;8.70;;;5.67;;
1262;SDS011;62267;50.112;8.704;2023-03-05T11:01:00;11.37;;;6.43;;
1262;SDS011;62267;50.112;8.704;2023-03-05T11:03:47;11.67;;;7.57;;
1262;SDS011;62267;50.112;8.704;2023-03-05T11:06:14;12.63;;;6.80;;
1262;SDS011;62267;50.112;8.704;2023-03-05T11:08:42;12.17;;;5.90;;
1262;SDS011;62267;50.112;8.704;2023-03-05T11:11:11;12.03;;;6.43;;
1262;SDS011;62267;50.112;8.704;2023-03-05T11:13:55;18.10;;;8.73;;
1262;SDS011;62267;50.112;8.704;2023-03-05T11:16:30;11.50;;;6.17;;
1262;SDS011;62267;50.112;8.704;2023-03-05T11:19:15;11.47;;;5.83;;
1262;SDS011;62267;50.112;8.704;2023-03-05T11:21:44;11.20;;;6.20;;
1262;SDS011;62267;50.112;8.704;2023-03-05T11:24:14;14.23;;;7.60;;
1262;SDS011;62267;50.112;8.704;2023-03-05T11:26:46;12.53;;;7.37;;
1262;SDS011;62267;50.112;8.704;2023-03-05T11:29:32;11.50;;;8.17;;
1262;SDS011;62267;50.112;8.704;2023-03-05T11:32:19;11.80;;;7.87;;
1262;SDS011;62267;50.112;8.704;2023-03-05T11:34:47;14.67;;;9.47;;
1262;SDS011;62267;50.112;8.704;2023-03-05T11:37:25;10.90;;;7.13;;
1262;SDS011;62267;50.112;8.704;2023-03-05T11:42:39;13.27;;;7.87;;
1262;SDS011;62267;50.112;8.704;2023-03-05T11:45:10;16.03;;;7.37;;
1262;SDS011;62267;50.112;8.704;2023-03-05T11:47:48;9.77;;;6.23;;
1262;SDS011;62267;50.112;8.704;2023-03-05T11:55:44;10.97;;;6.50;;
1262;SDS011;62267;50.112;8.704;2023-03-05T12:00:45;14.17;;;7.77;;
1262;SDS011;62267;50.112;8.704;2023-03-05T12:03:14;11.00;;;6.87;;
1262;SDS011;62267;50.112;8.704;2023-03-05T12:05:44;12.03;;;7.00;;
1262;SDS011;62267;50.112;8.704;2023-03-05T12:08:13;11.00;;;6.33;;
1262;SDS011;62267;50.112;8.704;2023-03-05T12:10:42;11.40;;;6.30;;
1262;SDS011;62267;50.112;8.704;2023-03-05T12:13:11;13.87;;;9.20;;
1262;SDS011;62267;50.112;8.704;2023-03-05T12:18:19;18.33;;;7.30;;
1262;SDS011;62267;50.112;8.704;2023-03-05T12:23:43;13.00;;;7.37;;
1262;SDS011;62267;50.112;8.704;2023-03-05T12:26:11;7.93;;;5.80;;
1262;SDS011;62267;50.112;8.704;2023-03-05T12:28:51;11.80;;;6.30;;
1262;SDS011;62267;50.112;8.704;2023-03-05T12:31:33;9.87;;;6.43;;
1262;SDS011;62267;50.112;8.704;2023-03-05T12:36:49;9.17;;;6.37;;
1262;SDS011;62267;50.112;8.704;2023-03-05T12:42:11;8.70;;;6.23;;
1262;SDS011;62267;50.112;8.704;2023-03-05T12:47:42;11.67;;;7.50;;
1262;SDS011;62267;50.112;8.704;2023-03-05T12:55:26;9.10;;;6.10;;
1262;SDS011;62267;50.112;8.704;2023-03-05T12:57:56;10.30;;;6.77;;
1262;SDS011;62267;50.112;8.704;2023-03-05T13:00:26;14.43;;;6.20;;
1262;SDS011;62267;50.112;8.704;2023-03-05T13:02:54;8.90;;;6.00;;
1262;SDS011;62267;50.112;8.704;2023-03-05T13:05:28;10.87;;;6.70;;
1262;SDS011;62267;50.112;8.704;2023-03-05T13:10:49;9.53;;;5.10;;
1262;SDS011;62267;50.112;8.704;2023-03-05T13:13:17;6.03;;;5.47;;
1262;SDS011;62267;50.112;8.704;2023-03-05T13:15:47;9.53;;;5.20;;
1262;SDS011;62267;50.112;8.704;2023-03-05T13:18:20;9.73;;;6.07;;
1262;SDS011;62267;50.112;8.704;2023-03-05T13:20:59;12.10;;;6.10;;
1262;SDS011;62267;50.112;8.704;2023-03-05T13:23:27;6.57;;;4.93;;
1262;SDS011;62267;50.112;8.704;2023-03-05T13:25:57;7.63;;;6.13;;
1262;SDS011;62267;50.112;8.704;2023-03-05T13:28:25;9.43;;;5.87;;
1262;SDS011;62267;50.112;8.704;2023-03-05T13:30:54;7.70;;;5.37;;
1262;SDS011;62267;50.112;8.704;2023-03-05T13:33:27;6.20;;;4.00;;
1262;SDS011;62267;50.112;8.704;2023-03-05T13:35:55;9.20;;;5.63;;
1262;SDS011;62267;50.112;8.704;2023-03-05T13:39:05;7.17;;;4.67;;
1262;SDS011;62267;50.112;8.704;2023-03-05T13:43:44;6.00;;;5.03;;
1262;SDS011;62267;50.112;8.704;2023-03-05T13:46:12;6.33;;;4.87;;
1262;SDS011;62267;50.112;8.704;2023-03-05T13:48:40;5.80;;;4.17;;
1262;SDS011;62267;50.112;8.704;2023-03-05T13:51:07;6.30;;;4.33;;
1262;SDS011;62267;50.112;8.704;2023-03-05T13:53:37;8.17;;;5.20;;
1262;SDS011;62267;50.112;8.704;2023-03-05T13:56:11;7.03;;;4.30;;
1262;SDS011;62267;50.112;8.704;2023-03-05T13:58:51;5.17;;;4.43;;
1262;SDS011;62267;50.112;8.704;2023-03-05T14:03:54;9.53;;;4.63;;
1262;SDS011;62267;50.112;8.704;2023-03-05T14:06:24;6.20;;;4.40;;
1262;SDS011;62267;50.112;8.704;2023-03-05T14:09:02;7.37;;;4.70;;
1262;SDS011;62267;50.112;8.704;2023-03-05T14:11:29;6.67;;;4.07;;
1262;SDS011;62267;50.112;8.704;2023-03-05T14:13:59;5.80;;;4.40;;
1262;SDS011;62267;50.112;8.704;2023-03-05T14:16:28;3.97;;;3.67;;
1262;SDS011;62267;50.112;8.704;2023-03-05T14:18:59;4.30;;;3.23;;
1262;SDS011;62267;50.112;8.704;2023-03-05T14:21:47;3.73;;;3.33;;
1262;SDS011;62267;50.112;8.704;2023-03-05T14:24:24;4.83;;;4.10;;
1262;SDS011;62267;50.112;8.704;2023-03-05T14:26:54;5.87;;;4.83;;
1262;SDS011;62267;50.112;8.704;2023-03-05T14:29:22;7.40;;;4.13;;
1262;SDS011;62267;50.112;8.704;2023-03-05T14:31:52;3.70;;;3.40;;
1262;SDS011;62267;50.112;8.704;2023-03-05T14:36:54;7.40;;;4.20;;
1262;SDS011;62267;50.112;8.704;2023-03-05T14:39:26;4.10;;;3.13;;
1262;SDS011;62267;50.112;8.704;2023-03-05T14:41:54;5.63;;;4.10;;
1262;SDS011;62267;50.112;8.704;2023-03-05T14:44:21;4.33;;;3.30;;
1262;SDS011;62267;50.112;8.704;2023-03-05T14:46:51;5.80;;;3.80;;
1262;SDS011;62267;50.112;8.704;2023-03-05T14:49:18;3.93;;;3.60;;
1262;SDS011;62267;50.112;8.704;2023-03-05T14:51:45;5.17;;;3.77;;
1262;SDS011;62267;50.112;8.704;2023-03-05T14:54:23;4.10;;;3.43;;
1262;SDS011;62267;50.112;8.704;2023-03-05T14:56:51;3.47;;;3.17;;
1262;SDS011;62267;50.112;8.704;2023-03-05T14:59:18;4.90;;;3.60;;
1262;SDS011;62267;50.112;8.704;2023-03-05T15:01:48;7.00;;;3.90;;
1262;SDS011;62267;50.112;8.704;2023-03-05T15:04:16;4.23;;;3.73;;
1262;SDS011;62267;50.112;8.704;2023-03-05T15:06:45;6.40;;;3.40;;
1262;SDS011;62267;50.112;8.704;2023-03-05T15:09:16;7.33;;;4.57;;
1262;SDS011;62267;50.112;8.704;2023-03-05T15:11:44;7.30;;;4.27;;
1262;SDS011;62267;50.112;8.704;2023-03-05T15:14:12;6.93;;;3.77;;
1262;SDS011;62267;50.112;8.704;2023-03-05T15:16:42;4.27;;;3.40;;
1262;SDS011;62267;50.112;8.704;2023-03-05T15:19:11;4.10;;;3.43;;
1262;SDS011;62267;50.112;8.704;2023-03-05T15:21:38;5.10;;;4.03;;
1262;SDS011;62267;50.112;8.704;2023-03-05T15:24:06;5.40;;;3.30;;
1262;SDS011;62267;50.112;8.704;2023-03-05T15:26:38;6.03;;;4.13;;
1262;SDS011;62267;50.112;8.704;2023-03-05T15:29:06;5.80;;;3.43;;
1262;SDS011;62267;50.112;8.704;2023-03-05T15:31:33;4.20;;;3.80;;
1262;SDS011;62267;50.112;8.704;2023-03-05T15:34:04;8.70;;;5.60;;
1262;SDS011;62267;50.112;8.704;2023-03-05T15:36:31;4.30;;;3.90;;
1262;SDS011;62267;50.112;8.704;2023-03-05T15:38:59;7.67;;;4.73;;
1262;SDS011;62267;50.112;8.704;2023-03-05T15:41:26;4.43;;;3.80;;
1262;SDS011;62267;50.112;8.704;2023-03-05T15:43:53;4.83;;;4.33;;
1262;SDS011;62267;50.112;8.704;2023-03-05T15:46:21;6.70;;;3.70;;
1262;SDS011;62267;50.112;8.704;2023-03-05T15:48:48;6.77;;;4.70;;
1262;SDS011;62267;50.112;8.704;2023-03-05T15:51:16;6.87;;;4.53;;
1262;SDS011;62267;50.112;8.704;2023-03-05T15:53:43;5.27;;;4.43;;
1262;SDS011;62267;50.112;8.704;2023-03-05T15:56:17;6.53;;;4.00;;
1262;SDS011;62267;50.112;8.704;2023-03-05T15:58:44;4.40;;;4.00;;
1262;SDS011;62267;50.112;8.704;2023-03-05T16:01:14;7.97;;;4.50;;
1262;SDS011;62267;50.112;8.704;2023-03-05T16:03:45;5.70;;;4.23;;
1262;SDS011;62267;50.112;8.704;2023-03-05T16:06:12;8.73;;;4.50;;